X  Fechar Dados meteorológicos de METAR da aviação     LYNI Nis Airport
Temperatura
38°C Temperatura
15°C Ponto de orvalho
25% Umidade



Vento
1 M/S
3 MPH
5 KM/H
3 NÓS



Calmo
N
Condições atuais

Limpo Limpo
Pressão 1010.84 (hPa) - 29.85 (inHg)
Visibilidade 6 (milha) - 9.7 (km)
Aeroporto
Código do aeroporto LYNI

Localização: Nis Airport
Distância: 63 (km)

Metar:
LYNI 141300Z VRB03KT CAVOK 38/15 Q1011 NOSIG

Hora: 14-07-2024 15:00 CEST